Terminal Aerodrome Forecast
Issued by NWS Northern Indiana

Home | Current Version | Previous Version | Text Only | Print | Product List | Glossary On
Versions: 1 2 3 4 5 6 7 8 9 10 11 12 13 14 15 16 17 18 19 20 21 22 23 24 25 26 27 28 29
000
FTUS43 KIWX 240537
TAFFWA
TAF
KFWA 240537Z 2406/2506 18006KT 4SM SHRA BKN025 OVC040
     FM240800 19007KT P6SM SCT015 OVC025
     FM241700 21012KT P6SM VCSH BKN025
     FM242300 23012KT P6SM BKN200=

USA.gov is the U.S. government's official web portal to all federal, state and local government web resources and services.